sensor_id;sensor_type;location;lat;lon;timestamp;pressure;altitude;pressure_sealevel;temperature;humidity
70921;BME280;58572;48.110;19.838;2023-02-13T00:02:02;99785.34;;;0.81;69.66
70921;BME280;58572;48.110;19.838;2023-02-13T00:04:29;99794.25;;;1.12;68.98
70921;BME280;58572;48.110;19.838;2023-02-13T00:06:56;99789.81;;;0.49;70.32
70921;BME280;58572;48.110;19.838;2023-02-13T00:09:24;99791.22;;;0.29;70.69
70921;BME280;58572;48.110;19.838;2023-02-13T00:11:51;99790.06;;;0.71;68.35
70921;BME280;58572;48.110;19.838;2023-02-13T00:14:19;99789.56;;;-0.45;72.40
70921;BME280;58572;48.110;19.838;2023-02-13T00:16:46;99782.88;;;-0.09;73.71
70921;BME280;58572;48.110;19.838;2023-02-13T00:19:14;99785.22;;;-0.30;74.01
70921;BME280;58572;48.110;19.838;2023-02-13T00:21:41;99789.41;;;-0.19;73.68
70921;BME280;58572;48.110;19.838;2023-02-13T00:24:08;99787.97;;;0.50;69.46
70921;BME280;58572;48.110;19.838;2023-02-13T00:26:35;99788.19;;;0.79;69.86
70921;BME280;58572;48.110;19.838;2023-02-13T00:29:04;99787.28;;;0.95;69.15
70921;BME280;58572;48.110;19.838;2023-02-13T00:31:33;99784.44;;;0.96;68.45
70921;BME280;58572;48.110;19.838;2023-02-13T00:34:00;99788.22;;;0.24;71.04
70921;BME280;58572;48.110;19.838;2023-02-13T00:36:27;99739.81;;;-0.46;73.14
70921;BME280;58572;48.110;19.838;2023-02-13T00:38:54;99800.84;;;0.54;70.67
70921;BME280;58572;48.110;19.838;2023-02-13T00:41:22;99801.59;;;-0.49;74.81
70921;BME280;58572;48.110;19.838;2023-02-13T00:43:49;99802.59;;;-0.50;75.29
70921;BME280;58572;48.110;19.838;2023-02-13T00:46:16;99799.75;;;-0.49;74.63
70921;BME280;58572;48.110;19.838;2023-02-13T00:48:45;99798.22;;;-0.68;76.54
70921;BME280;58572;48.110;19.838;2023-02-13T00:51:12;99659.13;;;-1.31;75.41
70921;BME280;58572;48.110;19.838;2023-02-13T00:53:40;99800.75;;;-0.17;73.61
70921;BME280;58572;48.110;19.838;2023-02-13T00:56:07;99805.63;;;0.12;72.48
70921;BME280;58572;48.110;19.838;2023-02-13T00:58:34;99791.28;;;1.07;68.63
70921;BME280;58572;48.110;19.838;2023-02-13T01:01:01;99795.00;;;0.90;68.00
70921;BME280;58572;48.110;19.838;2023-02-13T01:03:28;99790.91;;;0.08;70.93
70921;BME280;58572;48.110;19.838;2023-02-13T01:05:57;99783.88;;;-0.10;73.13
70921;BME280;58572;48.110;19.838;2023-02-13T01:08:24;99776.53;;;-0.16;71.92
70921;BME280;58572;48.110;19.838;2023-02-13T01:10:53;99796.75;;;-0.13;73.74
70921;BME280;58572;48.110;19.838;2023-02-13T01:13:20;99790.16;;;0.93;68.19
70921;BME280;58572;48.110;19.838;2023-02-13T01:15:48;99791.69;;;0.88;68.24
70921;BME280;58572;48.110;19.838;2023-02-13T01:18:16;99798.69;;;0.89;67.93
70921;BME280;58572;48.110;19.838;2023-02-13T01:20:44;99814.00;;;0.72;68.45
70921;BME280;58572;48.110;19.838;2023-02-13T01:23:12;99813.09;;;0.41;70.03
70921;BME280;58572;48.110;19.838;2023-02-13T01:25:40;99821.84;;;0.74;68.87
70921;BME280;58572;48.110;19.838;2023-02-13T01:28:07;99828.88;;;0.75;68.43
70921;BME280;58572;48.110;19.838;2023-02-13T01:30:34;99824.22;;;0.69;67.64
70921;BME280;58572;48.110;19.838;2023-02-13T01:33:02;99828.31;;;-0.17;71.54
70921;BME280;58572;48.110;19.838;2023-02-13T01:35:29;99822.25;;;0.54;68.74
70921;BME280;58572;48.110;19.838;2023-02-13T01:37:56;99821.47;;;-0.36;71.24
70921;BME280;58572;48.110;19.838;2023-02-13T01:40:24;99824.22;;;-0.86;74.74
70921;BME280;58572;48.110;19.838;2023-02-13T01:42:54;99822.88;;;-0.90;75.46
70921;BME280;58572;48.110;19.838;2023-02-13T01:45:26;99817.97;;;-0.36;74.49
70921;BME280;58572;48.110;19.838;2023-02-13T01:47:56;99810.59;;;-0.58;74.42
70921;BME280;58572;48.110;19.838;2023-02-13T01:50:29;99813.75;;;-0.55;74.85
70921;BME280;58572;48.110;19.838;2023-02-13T01:53:01;99797.41;;;-0.36;74.19
70921;BME280;58572;48.110;19.838;2023-02-13T01:55:34;99806.28;;;-0.19;73.02
70921;BME280;58572;48.110;19.838;2023-02-13T01:58:06;99801.91;;;0.29;70.31
70921;BME280;58572;48.110;19.838;2023-02-13T02:00:34;99804.44;;;0.14;71.11
70921;BME280;58572;48.110;19.838;2023-02-13T02:03:06;99806.91;;;-0.57;73.07
70921;BME280;58572;48.110;19.838;2023-02-13T02:05:36;99797.44;;;0.13;72.40
70921;BME280;58572;48.110;19.838;2023-02-13T02:08:07;99799.59;;;0.10;70.96
70921;BME280;58572;48.110;19.838;2023-02-13T02:10:37;99797.09;;;-0.33;72.96
70921;BME280;58572;48.110;19.838;2023-02-13T02:13:06;99795.25;;;-0.24;72.32
70921;BME280;58572;48.110;19.838;2023-02-13T02:15:36;99796.59;;;-0.20;72.95
70921;BME280;58572;48.110;19.838;2023-02-13T02:18:05;99794.03;;;-0.70;73.12
70921;BME280;58572;48.110;19.838;2023-02-13T02:23:47;99706.16;;;0.16;69.01
70921;BME280;58572;48.110;19.838;2023-02-13T02:32:35;99787.97;;;0.50;68.37
70921;BME280;58572;48.110;19.838;2023-02-13T02:35:15;99773.38;;;0.60;68.51
70921;BME280;58572;48.110;19.838;2023-02-13T02:38:00;99775.81;;;0.31;69.33
70921;BME280;58572;48.110;19.838;2023-02-13T02:40:37;99773.97;;;0.40;68.63
70921;BME280;58572;48.110;19.838;2023-02-13T02:43:16;99774.44;;;0.43;68.17
70921;BME280;58572;48.110;19.838;2023-02-13T02:45:51;99776.78;;;0.46;68.05
70921;BME280;58572;48.110;19.838;2023-02-13T02:48:27;99778.19;;;0.18;69.16
70921;BME280;58572;48.110;19.838;2023-02-13T02:51:15;99780.06;;;-0.23;68.85
70921;BME280;58572;48.110;19.838;2023-02-13T02:53:49;99781.56;;;-0.21;68.46
70921;BME280;58572;48.110;19.838;2023-02-13T02:56:21;99798.28;;;0.06;68.66
70921;BME280;58572;48.110;19.838;2023-02-13T02:58:52;99782.56;;;-0.14;69.45
70921;BME280;58572;48.110;19.838;2023-02-13T03:01:38;99785.06;;;-0.45;69.94
70921;BME280;58572;48.110;19.838;2023-02-13T03:04:28;99783.34;;;-0.78;70.31
70921;BME280;58572;48.110;19.838;2023-02-13T03:07:16;99774.22;;;-0.43;70.33
70921;BME280;58572;48.110;19.838;2023-02-13T03:09:47;99776.88;;;-0.51;69.97
70921;BME280;58572;48.110;19.838;2023-02-13T03:12:41;99765.84;;;0.17;67.95
70921;BME280;58572;48.110;19.838;2023-02-13T03:15:27;99768.19;;;0.67;66.54
70921;BME280;58572;48.110;19.838;2023-02-13T03:17:56;99768.16;;;0.28;67.10
70921;BME280;58572;48.110;19.838;2023-02-13T03:20:45;99780.53;;;0.21;67.58
70921;BME280;58572;48.110;19.838;2023-02-13T03:23:37;99762.81;;;-0.05;67.04
70921;BME280;58572;48.110;19.838;2023-02-13T03:26:37;99784.13;;;-1.02;71.35
70921;BME280;58572;48.110;19.838;2023-02-13T03:29:27;99775.16;;;-0.85;70.83
70921;BME280;58572;48.110;19.838;2023-02-13T03:32:22;99775.19;;;-0.52;71.11
70921;BME280;58572;48.110;19.838;2023-02-13T03:34:59;99777.19;;;-0.06;68.93
70921;BME280;58572;48.110;19.838;2023-02-13T03:38:01;99718.06;;;-0.11;67.25
70921;BME280;58572;48.110;19.838;2023-02-13T03:40:37;99773.50;;;0.28;66.82
70921;BME280;58572;48.110;19.838;2023-02-13T03:43:31;99771.66;;;0.20;67.01
70921;BME280;58572;48.110;19.838;2023-02-13T03:46:02;99774.47;;;-0.95;71.09
70921;BME280;58572;48.110;19.838;2023-02-13T03:48:31;99769.88;;;-0.28;69.48
70921;BME280;58572;48.110;19.838;2023-02-13T03:51:21;99766.34;;;-0.04;67.78
70921;BME280;58572;48.110;19.838;2023-02-13T03:53:54;99762.50;;;-0.10;68.52
70921;BME280;58572;48.110;19.838;2023-02-13T03:56:23;99757.50;;;0.04;67.28
70921;BME280;58572;48.110;19.838;2023-02-13T03:59:17;99754.47;;;0.15;67.53
70921;BME280;58572;48.110;19.838;2023-02-13T04:01:50;99745.50;;;-0.41;69.38
70921;BME280;58572;48.110;19.838;2023-02-13T04:04:24;99751.34;;;-1.20;73.90
70921;BME280;58572;48.110;19.838;2023-02-13T04:06:58;99747.31;;;-1.33;75.38
70921;BME280;58572;48.110;19.838;2023-02-13T04:09:28;99736.88;;;-1.10;74.94
70921;BME280;58572;48.110;19.838;2023-02-13T04:12:02;99736.81;;;-0.68;72.27
70921;BME280;58572;48.110;19.838;2023-02-13T04:14:37;99744.66;;;-0.25;69.34
70921;BME280;58572;48.110;19.838;2023-02-13T04:17:09;99755.16;;;-0.16;68.80
70921;BME280;58572;48.110;19.838;2023-02-13T04:19:38;99751.47;;;-0.07;68.03
70921;BME280;58572;48.110;19.838;2023-02-13T04:22:05;99755.16;;;-0.16;68.24
70921;BME280;58572;48.110;19.838;2023-02-13T04:24:34;99756.63;;;-0.94;71.54
70921;BME280;58572;48.110;19.838;2023-02-13T04:27:01;99753.81;;;-0.85;70.48
70921;BME280;58572;48.110;19.838;2023-02-13T04:29:28;99745.97;;;-1.37;72.91
70921;BME280;58572;48.110;19.838;2023-02-13T04:31:55;99746.31;;;-1.32;72.54
70921;BME280;58572;48.110;19.838;2023-02-13T04:34:22;99746.81;;;-0.70;71.05
70921;BME280;58572;48.110;19.838;2023-02-13T04:36:49;99729.00;;;-1.19;72.06
70921;BME280;58572;48.110;19.838;2023-02-13T04:39:16;99744.91;;;-1.52;75.32
70921;BME280;58572;48.110;19.838;2023-02-13T04:41:44;99738.00;;;-1.29;73.56
70921;BME280;58572;48.110;19.838;2023-02-13T04:44:11;99720.78;;;-0.76;70.61
70921;BME280;58572;48.110;19.838;2023-02-13T04:46:38;99723.44;;;-0.84;71.65
70921;BME280;58572;48.110;19.838;2023-02-13T04:49:05;99712.06;;;-0.29;69.15
70921;BME280;58572;48.110;19.838;2023-02-13T04:51:32;99714.69;;;0.12;66.88
70921;BME280;58572;48.110;19.838;2023-02-13T04:53:59;99711.41;;;-0.23;68.44
70921;BME280;58572;48.110;19.838;2023-02-13T04:56:26;99712.41;;;-0.32;68.75
70921;BME280;58572;48.110;19.838;2023-02-13T04:58:55;99708.06;;;-0.17;68.34
70921;BME280;58572;48.110;19.838;2023-02-13T05:01:22;99714.44;;;-0.34;68.16
70921;BME280;58572;48.110;19.838;2023-02-13T05:03:49;99710.94;;;-0.43;68.85
70921;BME280;58572;48.110;19.838;2023-02-13T05:06:16;99717.41;;;-1.02;68.76
70921;BME280;58572;48.110;19.838;2023-02-13T05:08:43;99678.38;;;-0.62;68.38
70921;BME280;58572;48.110;19.838;2023-02-13T05:11:10;99715.09;;;-0.65;68.48
70921;BME280;58572;48.110;19.838;2023-02-13T05:13:37;99716.13;;;-1.32;71.57
70921;BME280;58572;48.110;19.838;2023-02-13T05:16:05;99715.91;;;-1.47;73.50
70921;BME280;58572;48.110;19.838;2023-02-13T05:18:32;99724.91;;;-1.48;73.24
70921;BME280;58572;48.110;19.838;2023-02-13T05:20:59;99724.59;;;-1.45;72.91
70921;BME280;58572;48.110;19.838;2023-02-13T05:23:44;99705.34;;;-1.14;72.61
70921;BME280;58572;48.110;19.838;2023-02-13T05:26:11;99713.88;;;-1.61;73.51
70921;BME280;58572;48.110;19.838;2023-02-13T05:28:38;99718.16;;;-1.26;73.66
70921;BME280;58572;48.110;19.838;2023-02-13T05:31:24;99719.09;;;-0.60;70.12
70921;BME280;58572;48.110;19.838;2023-02-13T05:33:51;99720.59;;;-0.17;68.91
70921;BME280;58572;48.110;19.838;2023-02-13T05:36:18;99710.38;;;-0.14;66.84
70921;BME280;58572;48.110;19.838;2023-02-13T05:38:45;99731.28;;;-0.34;68.02
70921;BME280;58572;48.110;19.838;2023-02-13T05:41:12;99737.13;;;-0.54;67.81
70921;BME280;58572;48.110;19.838;2023-02-13T05:43:39;99748.25;;;-1.84;72.17
70921;BME280;58572;48.110;19.838;2023-02-13T05:46:07;99735.19;;;-1.61;72.71
70921;BME280;58572;48.110;19.838;2023-02-13T05:48:36;99741.81;;;-0.73;69.25
70921;BME280;58572;48.110;19.838;2023-02-13T05:51:03;99746.75;;;-1.02;70.36
70921;BME280;58572;48.110;19.838;2023-02-13T05:53:30;99688.81;;;-1.76;72.04
70921;BME280;58572;48.110;19.838;2023-02-13T05:55:59;99750.25;;;-1.52;73.66
70921;BME280;58572;48.110;19.838;2023-02-13T05:58:27;99748.47;;;-0.69;69.35
70921;BME280;58572;48.110;19.838;2023-02-13T06:00:55;99752.97;;;-1.36;71.86
70921;BME280;58572;48.110;19.838;2023-02-13T06:03:22;99752.97;;;-1.36;73.21
70921;BME280;58572;48.110;19.838;2023-02-13T06:05:51;99755.63;;;-1.36;73.33
70921;BME280;58572;48.110;19.838;2023-02-13T06:08:19;99757.94;;;-0.99;70.61
70921;BME280;58572;48.110;19.838;2023-02-13T06:10:46;99757.91;;;-1.49;73.09
70921;BME280;58572;48.110;19.838;2023-02-13T06:13:14;99760.00;;;-1.69;75.46
70921;BME280;58572;48.110;19.838;2023-02-13T06:15:41;99770.97;;;-1.72;75.32
70921;BME280;58572;48.110;19.838;2023-02-13T06:18:09;99772.59;;;-1.45;75.18
70921;BME280;58572;48.110;19.838;2023-02-13T06:20:36;99650.28;;;-1.32;69.62
70921;BME280;58572;48.110;19.838;2023-02-13T06:23:04;99764.53;;;-0.28;67.94
70921;BME280;58572;48.110;19.838;2023-02-13T06:25:33;99769.69;;;-0.43;67.93
70921;BME280;58572;48.110;19.838;2023-02-13T06:28:00;99768.84;;;-0.59;68.61
70921;BME280;58572;48.110;19.838;2023-02-13T06:30:27;99779.88;;;-0.62;68.56
70921;BME280;58572;48.110;19.838;2023-02-13T06:32:54;99785.50;;;-0.90;69.19
70921;BME280;58572;48.110;19.838;2023-02-13T06:35:21;99782.50;;;-0.79;70.13
70921;BME280;58572;48.110;19.838;2023-02-13T06:37:48;99785.19;;;-1.21;71.67
70921;BME280;58572;48.110;19.838;2023-02-13T06:40:17;99804.19;;;-0.90;70.73
70921;BME280;58572;48.110;19.838;2023-02-13T06:42:44;99789.16;;;-0.91;70.67
70921;BME280;58572;48.110;19.838;2023-02-13T06:45:12;99760.31;;;-0.87;71.08
70921;BME280;58572;48.110;19.838;2023-02-13T06:47:40;99768.72;;;-1.16;71.98
70921;BME280;58572;48.110;19.838;2023-02-13T06:50:08;99784.56;;;-0.56;71.25
70921;BME280;58572;48.110;19.838;2023-02-13T06:52:35;99789.53;;;-0.78;70.78
70921;BME280;58572;48.110;19.838;2023-02-13T06:55:02;99765.38;;;-1.10;73.81
70921;BME280;58572;48.110;19.838;2023-02-13T06:57:31;99778.97;;;-0.95;74.33
70921;BME280;58572;48.110;19.838;2023-02-13T06:59:58;99780.19;;;-0.66;72.81
70921;BME280;58572;48.110;19.838;2023-02-13T07:02:29;99789.19;;;-0.83;73.14
70921;BME280;58572;48.110;19.838;2023-02-13T07:04:56;99798.50;;;-0.87;74.30
70921;BME280;58572;48.110;19.838;2023-02-13T07:07:23;99792.22;;;-0.61;74.37
70921;BME280;58572;48.110;19.838;2023-02-13T07:09:50;99801.03;;;-0.77;74.02
70921;BME280;58572;48.110;19.838;2023-02-13T07:12:17;99801.56;;;-0.57;73.82
70921;BME280;58572;48.110;19.838;2023-02-13T07:14:46;99720.97;;;-1.36;74.89
70921;BME280;58572;48.110;19.838;2023-02-13T07:17:13;99795.53;;;-0.76;75.07
70921;BME280;58572;48.110;19.838;2023-02-13T07:19:40;99794.88;;;-0.78;75.83
70921;BME280;58572;48.110;19.838;2023-02-13T07:22:07;99770.84;;;-0.78;74.64
70921;BME280;58572;48.110;19.838;2023-02-13T07:24:34;99794.91;;;-0.61;74.38
70921;BME280;58572;48.110;19.838;2023-02-13T07:27:02;99782.22;;;-0.59;74.31
70921;BME280;58572;48.110;19.838;2023-02-13T07:29:29;99789.56;;;-0.61;74.48
70921;BME280;58572;48.110;19.838;2023-02-13T07:31:58;99780.38;;;-0.43;74.38
70921;BME280;58572;48.110;19.838;2023-02-13T07:34:25;99779.88;;;-0.14;73.20
70921;BME280;58572;48.110;19.838;2023-02-13T07:36:52;99782.88;;;-0.09;73.13
70921;BME280;58572;48.110;19.838;2023-02-13T07:39:19;99782.22;;;-0.11;72.17
70921;BME280;58572;48.110;19.838;2023-02-13T07:41:46;99785.22;;;-0.14;72.70
70921;BME280;58572;48.110;19.838;2023-02-13T07:44:13;99785.06;;;0.04;72.54
70921;BME280;58572;48.110;19.838;2023-02-13T07:46:40;99782.38;;;-0.37;74.29
70921;BME280;58572;48.110;19.838;2023-02-13T07:49:08;99787.72;;;-0.20;73.61
70921;BME280;58572;48.110;19.838;2023-02-13T07:51:35;99781.88;;;-0.16;73.90
70921;BME280;58572;48.110;19.838;2023-02-13T07:54:02;99774.38;;;0.12;73.00
70921;BME280;58572;48.110;19.838;2023-02-13T07:56:29;99784.72;;;-0.01;72.99
70921;BME280;58572;48.110;19.838;2023-02-13T07:58:56;99781.56;;;-0.13;73.90
70921;BME280;58572;48.110;19.838;2023-02-13T08:01:23;99779.91;;;0.03;72.77
70921;BME280;58572;48.110;19.838;2023-02-13T08:03:51;99781.50;;;0.36;72.73
70921;BME280;58572;48.110;19.838;2023-02-13T08:06:20;99775.84;;;0.15;73.29
70921;BME280;58572;48.110;19.838;2023-02-13T08:08:47;99780.75;;;0.58;71.94
70921;BME280;58572;48.110;19.838;2023-02-13T08:11:34;99726.41;;;-0.14;72.65
70921;BME280;58572;48.110;19.838;2023-02-13T08:14:19;99788.22;;;0.24;73.38
70921;BME280;58572;48.110;19.838;2023-02-13T08:16:46;99781.13;;;0.47;72.94
70921;BME280;58572;48.110;19.838;2023-02-13T08:19:13;99785.53;;;0.24;73.18
70921;BME280;58572;48.110;19.838;2023-02-13T08:21:42;99799.16;;;0.53;73.19
70921;BME280;58572;48.110;19.838;2023-02-13T08:24:09;99792.16;;;0.52;73.25
70921;BME280;58572;48.110;19.838;2023-02-13T08:26:37;99635.88;;;-0.17;73.28
70921;BME280;58572;48.110;19.838;2023-02-13T08:29:05;99709.53;;;0.10;73.56
70921;BME280;58572;48.110;19.838;2023-02-13T08:31:32;99699.16;;;0.54;72.05
70921;BME280;58572;48.110;19.838;2023-02-13T08:34:00;99797.81;;;1.05;72.37
70921;BME280;58572;48.110;19.838;2023-02-13T08:36:27;99788.00;;;0.89;73.69
70921;BME280;58572;48.110;19.838;2023-02-13T08:38:55;99791.88;;;0.78;74.18
70921;BME280;58572;48.110;19.838;2023-02-13T08:41:22;99785.94;;;1.99;73.18
70921;BME280;58572;48.110;19.838;2023-02-13T08:43:49;99775.34;;;1.82;70.59
70921;BME280;58572;48.110;19.838;2023-02-13T08:46:16;99739.38;;;1.77;71.45
70921;BME280;58572;48.110;19.838;2023-02-13T08:48:43;99769.47;;;1.64;71.06
70921;BME280;58572;48.110;19.838;2023-02-13T08:51:12;99635.16;;;2.83;68.29
70921;BME280;58572;48.110;19.838;2023-02-13T08:53:39;99764.34;;;2.88;66.03
70921;BME280;58572;48.110;19.838;2023-02-13T08:56:08;99731.25;;;5.53;63.32
70921;BME280;58572;48.110;19.838;2023-02-13T08:58:36;99743.97;;;5.04;61.68
70921;BME280;58572;48.110;19.838;2023-02-13T09:01:04;99736.59;;;6.71;60.93
70921;BME280;58572;48.110;19.838;2023-02-13T09:03:32;99741.19;;;6.71;53.16
70921;BME280;58572;48.110;19.838;2023-02-13T09:05:59;99679.09;;;7.65;53.19
70921;BME280;58572;48.110;19.838;2023-02-13T09:08:27;99722.03;;;7.87;55.50
70921;BME280;58572;48.110;19.838;2023-02-13T09:10:55;99724.22;;;8.21;53.46
70921;BME280;58572;48.110;19.838;2023-02-13T09:13:24;99731.06;;;9.22;52.04
70921;BME280;58572;48.110;19.838;2023-02-13T09:15:52;99720.53;;;9.74;50.79
70921;BME280;58572;48.110;19.838;2023-02-13T09:18:19;99730.44;;;9.80;49.33
70921;BME280;58572;48.110;19.838;2023-02-13T09:20:46;99725.94;;;9.74;50.37
70921;BME280;58572;48.110;19.838;2023-02-13T09:23:13;99728.44;;;10.40;49.31
70921;BME280;58572;48.110;19.838;2023-02-13T09:25:40;99729.56;;;10.79;48.04
70921;BME280;58572;48.110;19.838;2023-02-13T09:28:07;99701.50;;;11.59;46.17
70921;BME280;58572;48.110;19.838;2023-02-13T09:30:36;99730.97;;;10.94;48.01
70921;BME280;58572;48.110;19.838;2023-02-13T09:33:09;99747.91;;;8.08;52.46
70921;BME280;58572;48.110;19.838;2023-02-13T09:35:36;99735.56;;;10.00;47.64
70921;BME280;58572;48.110;19.838;2023-02-13T09:38:06;99740.16;;;8.79;51.87
70921;BME280;58572;48.110;19.838;2023-02-13T09:40:35;99749.41;;;11.03;48.88
70921;BME280;58572;48.110;19.838;2023-02-13T09:43:06;99749.81;;;9.42;47.46
70921;BME280;58572;48.110;19.838;2023-02-13T09:45:38;99764.97;;;8.40;52.16
70921;BME280;58572;48.110;19.838;2023-02-13T09:48:05;99772.94;;;7.40;54.25
70921;BME280;58572;48.110;19.838;2023-02-13T09:50:37;99762.19;;;8.46;52.50
70921;BME280;58572;48.110;19.838;2023-02-13T09:53:05;99746.16;;;10.66;44.15
70921;BME280;58572;48.110;19.838;2023-02-13T09:55:38;99750.53;;;10.44;48.37
70921;BME280;58572;48.110;19.838;2023-02-13T09:58:12;99702.34;;;9.86;46.01
70921;BME280;58572;48.110;19.838;2023-02-13T10:00:50;99746.84;;;10.27;47.08
70921;BME280;58572;48.110;19.838;2023-02-13T10:03:27;99753.50;;;9.47;48.82
70921;BME280;58572;48.110;19.838;2023-02-13T10:06:05;99676.28;;;8.47;52.22
70921;BME280;58572;48.110;19.838;2023-02-13T10:08:47;99736.94;;;10.67;45.73
70921;BME280;58572;48.110;19.838;2023-02-13T10:11:41;99719.09;;;11.40;45.04
70921;BME280;58572;48.110;19.838;2023-02-13T10:14:15;99729.41;;;10.98;42.17
70921;BME280;58572;48.110;19.838;2023-02-13T10:16:49;99739.03;;;8.69;50.65
70921;BME280;58572;48.110;19.838;2023-02-13T10:19:31;99713.97;;;11.43;45.90
70921;BME280;58572;48.110;19.838;2023-02-13T10:22:04;99722.25;;;9.56;47.46
70921;BME280;58572;48.110;19.838;2023-02-13T10:24:36;99726.13;;;8.46;46.05
70921;BME280;58572;48.110;19.838;2023-02-13T10:27:20;99712.06;;;10.05;49.21
70921;BME280;58572;48.110;19.838;2023-02-13T10:29:51;99707.06;;;9.79;47.17
70921;BME280;58572;48.110;19.838;2023-02-13T10:32:53;99692.94;;;10.70;49.79
70921;BME280;58572;48.110;19.838;2023-02-13T10:35:37;99695.16;;;10.15;48.42
70921;BME280;58572;48.110;19.838;2023-02-13T10:38:13;99674.69;;;13.44;44.00
70921;BME280;58572;48.110;19.838;2023-02-13T10:40:53;99664.00;;;13.69;40.63
70921;BME280;58572;48.110;19.838;2023-02-13T10:43:29;99683.56;;;9.84;45.21
70921;BME280;58572;48.110;19.838;2023-02-13T10:46:06;99680.84;;;9.73;44.50
70921;BME280;58572;48.110;19.838;2023-02-13T10:49:01;99640.59;;;9.28;50.40
70921;BME280;58572;48.110;19.838;2023-02-13T10:51:33;99674.47;;;12.03;44.39
70921;BME280;58572;48.110;19.838;2023-02-13T10:54:23;99668.28;;;11.45;44.93
70921;BME280;58572;48.110;19.838;2023-02-13T10:57:00;99659.25;;;12.84;40.96
70921;BME280;58572;48.110;19.838;2023-02-13T10:59:46;99653.66;;;12.96;42.98
70921;BME280;58572;48.110;19.838;2023-02-13T11:02:23;99661.84;;;12.52;43.67
70921;BME280;58572;48.110;19.838;2023-02-13T11:04:56;99659.31;;;11.62;46.19
70921;BME280;58572;48.110;19.838;2023-02-13T11:07:24;99596.31;;;9.16;45.49
70921;BME280;58572;48.110;19.838;2023-02-13T11:09:55;99661.22;;;9.59;49.68
70921;BME280;58572;48.110;19.838;2023-02-13T11:12:27;99660.97;;;9.19;51.96
70921;BME280;58572;48.110;19.838;2023-02-13T11:14:56;99649.56;;;10.52;48.35
70921;BME280;58572;48.110;19.838;2023-02-13T11:17:24;99616.94;;;10.17;46.46
70921;BME280;58572;48.110;19.838;2023-02-13T11:19:56;99366.88;;;7.90;46.73
70921;BME280;58572;48.110;19.838;2023-02-13T11:22:31;99585.78;;;9.73;44.57
70921;BME280;58572;48.110;19.838;2023-02-13T11:25:01;99647.78;;;12.43;45.22
70921;BME280;58572;48.110;19.838;2023-02-13T11:27:32;99629.47;;;10.06;48.24
70921;BME280;58572;48.110;19.838;2023-02-13T11:30:01;99669.94;;;9.49;47.00
70921;BME280;58572;48.110;19.838;2023-02-13T11:32:30;99648.41;;;11.45;46.66
70921;BME280;58572;48.110;19.838;2023-02-13T11:35:19;99636.09;;;12.48;42.43
70921;BME280;58572;48.110;19.838;2023-02-13T11:38:11;99628.97;;;12.25;43.68
70921;BME280;58572;48.110;19.838;2023-02-13T11:40:40;99608.72;;;7.65;49.44
70921;BME280;58572;48.110;19.838;2023-02-13T11:43:17;99658.97;;;8.23;49.16
70921;BME280;58572;48.110;19.838;2023-02-13T11:45:45;99651.03;;;9.13;50.79
70921;BME280;58572;48.110;19.838;2023-02-13T11:48:20;99639.75;;;10.91;46.87
70921;BME280;58572;48.110;19.838;2023-02-13T11:50:53;99566.66;;;9.44;49.42
70921;BME280;58572;48.110;19.838;2023-02-13T11:53:23;99622.88;;;11.34;44.84
70921;BME280;58572;48.110;19.838;2023-02-13T11:56:05;99609.81;;;11.81;45.33
70921;BME280;58572;48.110;19.838;2023-02-13T11:58:32;99609.13;;;11.12;44.71
70921;BME280;58572;48.110;19.838;2023-02-13T12:04:02;99627.47;;;9.25;49.94
70921;BME280;58572;48.110;19.838;2023-02-13T12:06:32;99607.47;;;10.54;49.47
70921;BME280;58572;48.110;19.838;2023-02-13T12:09:08;99615.44;;;9.86;47.78
70921;BME280;58572;48.110;19.838;2023-02-13T12:11:41;99597.78;;;7.29;51.55
70921;BME280;58572;48.110;19.838;2023-02-13T12:14:17;99623.13;;;7.84;53.98
70921;BME280;58572;48.110;19.838;2023-02-13T12:16:48;99594.63;;;9.03;51.09
70921;BME280;58572;48.110;19.838;2023-02-13T12:19:21;99631.28;;;6.96;53.59
70921;BME280;58572;48.110;19.838;2023-02-13T12:22:04;99610.84;;;9.33;50.04
70921;BME280;58572;48.110;19.838;2023-02-13T12:24:49;99614.50;;;8.85;49.98
70921;BME280;58572;48.110;19.838;2023-02-13T12:27:25;99614.97;;;8.64;49.50
70921;BME280;58572;48.110;19.838;2023-02-13T12:30:05;99612.56;;;6.95;57.56
70921;BME280;58572;48.110;19.838;2023-02-13T12:32:48;99601.38;;;7.48;51.67
70921;BME280;58572;48.110;19.838;2023-02-13T12:35:34;99625.84;;;5.41;58.36
70921;BME280;58572;48.110;19.838;2023-02-13T12:38:17;99526.16;;;7.07;54.13
70921;BME280;58572;48.110;19.838;2023-02-13T12:41:03;99525.50;;;7.97;52.97
70921;BME280;58572;48.110;19.838;2023-02-13T12:44:10;99599.59;;;8.03;52.10
70921;BME280;58572;48.110;19.838;2023-02-13T12:46:51;99602.44;;;6.46;55.01
70921;BME280;58572;48.110;19.838;2023-02-13T12:55:27;99577.16;;;7.34;52.18
70921;BME280;58572;48.110;19.838;2023-02-13T12:58:13;99584.78;;;5.32;59.59
70921;BME280;58572;48.110;19.838;2023-02-13T13:00:50;99566.16;;;6.15;56.73
70921;BME280;58572;48.110;19.838;2023-02-13T13:03:30;99561.44;;;6.04;56.59
70921;BME280;58572;48.110;19.838;2023-02-13T13:06:08;99554.44;;;5.63;57.69
70921;BME280;58572;48.110;19.838;2023-02-13T13:09:03;99556.03;;;6.87;55.41
70921;BME280;58572;48.110;19.838;2023-02-13T13:12:03;99567.56;;;6.76;52.76
70921;BME280;58572;48.110;19.838;2023-02-13T13:14:39;99490.88;;;6.70;52.79
70921;BME280;58572;48.110;19.838;2023-02-13T13:17:15;99579.78;;;5.36;56.83
70921;BME280;58572;48.110;19.838;2023-02-13T13:19:49;99478.97;;;6.08;56.71
70921;BME280;58572;48.110;19.838;2023-02-13T13:22:24;99568.22;;;6.71;56.01
70921;BME280;58572;48.110;19.838;2023-02-13T13:25:00;99562.31;;;6.81;54.42
70921;BME280;58572;48.110;19.838;2023-02-13T13:27:35;99567.38;;;6.32;57.75
70921;BME280;58572;48.110;19.838;2023-02-13T13:30:05;99587.97;;;4.68;61.55
70921;BME280;58572;48.110;19.838;2023-02-13T13:32:40;99582.66;;;5.67;59.65
70921;BME280;58572;48.110;19.838;2023-02-13T13:35:13;99572.91;;;6.51;58.15
70921;BME280;58572;48.110;19.838;2023-02-13T13:37:44;99577.88;;;5.76;57.26
70921;BME280;58572;48.110;19.838;2023-02-13T13:40:25;99587.53;;;4.52;62.33